Strathkinness, United Kingdom
Current Conditions -  °F | °C
As of 9:50 AM on Wednesday 22 Oct 2014 (Local Time) from EGQL Reporting Station
Drizzle Drizzle  
Wind Chill: 43°   Ceiling: 8000
Heat Index: 48°   Visibility: 6mi
Dew Point: 41°   Wind: 12mph
Humidity: 76%   Direction: 240°WSW
Pressure: 30.03"   Gusts: NA
Location:  56.33°N, 2.87°W
Report Text: EGQL 220850Z 24010KT 9999 -DZ FEW012 BKN080 09/05 Q1017 BLU
Loading
Personal Weather Stations






























Interactive Weather Map New forecast layout! Learn more

10-Day Weather Forecast

Advertisements
Track Severe Weather on mobile